createdAt,value
2019-03-22T07:56:16.254Z,99.99
2019-03-22T07:57:17.924Z,99.99
2019-03-22T07:58:23.342Z,99.99
2019-03-22T07:59:16.157Z,99.99
2019-03-22T08:00:16.080Z,99.99
2019-03-22T08:01:16.176Z,99.99
2019-03-22T08:02:16.037Z,99.99
2019-03-22T08:03:16.189Z,99.99
2019-03-22T08:04:16.193Z,99.99
2019-03-22T08:05:16.046Z,99.99
2019-03-22T08:06:16.035Z,99.99
2019-03-22T08:07:15.985Z,99.99
2019-03-22T08:08:16.124Z,99.99
2019-03-22T08:09:15.981Z,99.99
2019-03-22T08:10:15.990Z,99.99
2019-03-22T08:11:16.052Z,99.99
2019-03-22T08:12:19.417Z,99.99
2019-03-22T08:13:16.091Z,99.99
2019-03-22T08:14:16.523Z,99.99
2019-03-22T08:15:16.016Z,99.99
2019-03-22T08:16:16.068Z,99.99
2019-03-22T08:17:15.898Z,99.99
2019-03-22T08:18:15.979Z,99.99
2019-03-22T08:19:15.854Z,99.99
2019-03-22T08:20:16.052Z,99.99
2019-03-22T08:21:15.838Z,99.99
2019-03-22T08:22:15.817Z,99.99
2019-03-22T08:23:15.913Z,99.99
2019-03-22T08:24:15.819Z,99.99
2019-03-22T08:25:15.982Z,99.99
2019-03-22T08:26:15.776Z,99.99
2019-03-22T08:27:16.384Z,99.99
2019-03-22T08:28:15.756Z,99.99
2019-03-22T08:29:15.865Z,99.99
2019-03-22T08:30:15.764Z,99.99
2019-03-22T08:31:15.802Z,99.99
2019-03-22T08:32:15.719Z,99.99
2019-03-22T08:33:15.917Z,99.99
2019-03-22T08:34:15.667Z,99.99
2019-03-22T08:35:15.886Z,99.99
2019-03-22T08:36:15.673Z,99.99
2019-03-22T08:37:15.746Z,99.99
2019-03-22T08:38:17.434Z,99.99
2019-03-22T08:39:15.649Z,99.99
2019-03-22T08:40:15.660Z,99.99
2019-03-22T08:41:15.673Z,99.99
2019-03-22T08:42:15.602Z,99.99
2019-03-22T08:43:15.672Z,99.99
2019-03-22T08:44:15.809Z,99.99
2019-03-22T08:45:15.761Z,99.98
2019-03-22T08:46:15.571Z,98.85
2019-03-22T08:47:15.667Z,99.36
2019-03-22T08:48:15.568Z,98.74
2019-03-22T08:49:15.808Z,98.03
2019-03-22T08:50:15.565Z,97.78
2019-03-22T08:51:15.529Z,96.25
2019-03-22T08:52:15.558Z,95.69
2019-03-22T08:53:15.621Z,94.97
2019-03-22T08:54:15.468Z,93.65
2019-03-22T08:55:16.037Z,92.62
2019-03-22T08:56:15.491Z,91.76
2019-03-22T08:57:15.472Z,90.70
2019-03-22T08:58:18.261Z,89.88
2019-03-22T08:59:15.550Z,89.94
2019-03-22T09:00:15.444Z,88.20
2019-03-22T09:01:15.567Z,86.88
2019-03-22T09:02:15.431Z,87.45
2019-03-22T09:03:15.391Z,84.90
2019-03-22T09:04:15.487Z,86.02
2019-03-22T09:05:15.417Z,85.16
2019-03-22T09:06:15.510Z,82.71
2019-03-22T09:07:15.379Z,82.47
2019-03-22T09:08:16.201Z,82.17
2019-03-22T09:09:15.436Z,82.07
2019-03-22T09:10:15.339Z,81.56
2019-03-22T09:11:18.032Z,81.96
2019-03-22T09:12:15.290Z,82.27
2019-03-22T09:13:15.454Z,81.96
2019-03-22T09:14:15.290Z,82.54
2019-03-22T09:15:15.304Z,81.82
2019-03-22T09:16:15.385Z,80.91
2019-03-22T09:17:15.276Z,80.19
2019-03-22T09:18:15.735Z,79.44
2019-03-22T09:19:15.230Z,78.73
2019-03-22T09:20:15.348Z,78.63
2019-03-22T09:21:15.297Z,78.73
2019-03-22T09:22:15.182Z,79.64
2019-03-22T09:23:15.310Z,79.71
2019-03-22T09:24:15.167Z,79.81
2019-03-22T09:25:15.285Z,78.49
2019-03-22T09:26:15.157Z,78.39
2019-03-22T09:27:15.129Z,77.78
2019-03-22T09:28:15.297Z,76.35
2019-03-22T09:29:15.108Z,75.70
2019-03-22T09:30:15.313Z,76.92
2019-03-22T09:31:15.077Z,77.53
2019-03-22T09:32:15.168Z,77.84
2019-03-22T09:33:15.183Z,76.01
2019-03-22T09:34:15.183Z,75.30
2019-03-22T09:35:15.101Z,75.30
2019-03-22T09:36:15.238Z,75.98
2019-03-22T09:37:15.022Z,73.97
2019-03-22T09:38:16.149Z,73.94
2019-03-22T09:39:15.010Z,73.63
2019-03-22T09:40:15.208Z,72.92
2019-03-22T09:41:14.977Z,73.43
2019-03-22T09:42:15.153Z,74.15
2019-03-22T09:43:14.971Z,74.24
2019-03-22T09:44:14.943Z,73.80
2019-03-22T09:45:14.989Z,74.11
2019-03-22T09:46:15.071Z,74.82
2019-03-22T09:47:16.525Z,74.52
2019-03-22T09:48:15.174Z,71.87
2019-03-22T09:49:14.904Z,71.16
2019-03-22T09:50:14.960Z,71.47
2019-03-22T09:51:14.924Z,71.77
2019-03-22T09:52:15.008Z,71.53
2019-03-22T09:53:14.854Z,69.20
2019-03-22T09:54:15.029Z,68.79
2019-03-22T09:55:14.855Z,69.98
2019-03-22T09:56:14.814Z,69.67
2019-03-22T09:57:14.815Z,68.55
2019-03-22T09:58:14.957Z,69.17
2019-03-22T09:59:14.781Z,70.59
2019-03-22T10:00:14.908Z,69.26
2019-03-22T10:01:23.671Z,69.34
2019-03-22T10:02:15.750Z,68.62
2019-03-22T10:03:14.880Z,69.03
2019-03-22T10:04:14.716Z,68.93
2019-03-22T10:05:14.959Z,67.71
2019-03-22T10:06:14.723Z,66.60
2019-03-22T10:07:14.806Z,65.88
2019-03-22T10:08:15.839Z,66.19
2019-03-22T10:09:14.692Z,66.80
2019-03-22T10:10:14.879Z,67.00
2019-03-22T10:11:14.638Z,67.47
2019-03-22T10:12:14.751Z,66.80
2019-03-22T10:13:14.691Z,66.39
2019-03-22T10:14:14.617Z,67.17
2019-03-22T10:15:14.810Z,66.05
2019-03-22T10:16:14.653Z,66.56
2019-03-22T10:17:14.776Z,66.97
2019-03-22T10:18:14.643Z,64.13
2019-03-22T10:19:14.731Z,65.04
2019-03-22T10:20:14.581Z,64.84
2019-03-22T10:21:22.441Z,63.59
2019-03-22T10:22:15.529Z,63.69
2019-03-22T10:23:14.716Z,62.17
2019-03-22T10:24:14.523Z,62.98
2019-03-22T10:25:14.682Z,63.39
2019-03-22T10:26:14.499Z,63.49
2019-03-22T10:27:14.722Z,63.69
2019-03-22T10:28:14.600Z,64.88
2019-03-22T10:29:14.657Z,65.31
2019-03-22T10:30:14.530Z,65.18
2019-03-22T10:31:14.592Z,65.01
2019-03-22T10:32:14.455Z,65.39
2019-03-22T10:33:22.569Z,66.50
2019-03-22T10:34:15.483Z,66.40
2019-03-22T10:35:25.380Z,66.67
2019-03-22T10:36:15.436Z,66.88
2019-03-22T10:37:14.429Z,66.06
2019-03-22T10:38:16.489Z,65.73
2019-03-22T10:39:14.524Z,66.67
2019-03-22T10:40:14.382Z,64.64
2019-03-22T10:41:14.528Z,63.53
2019-03-22T10:42:14.360Z,63.90
2019-03-22T10:43:14.307Z,64.82
2019-03-22T10:44:14.341Z,63.20
2019-03-22T10:45:14.531Z,62.31
2019-03-22T10:46:14.346Z,63.53
2019-03-22T10:47:14.385Z,63.81
2019-03-22T10:48:14.267Z,64.24
2019-03-22T10:49:14.248Z,64.41
2019-03-22T10:50:14.281Z,63.50
2019-03-22T10:51:14.385Z,65.12
2019-03-22T10:52:14.220Z,65.42
2019-03-22T10:53:14.345Z,64.72
2019-03-22T10:54:14.236Z,65.19
2019-03-22T10:55:29.354Z,63.87
2019-03-22T10:56:15.275Z,62.08
2019-03-22T10:57:14.163Z,63.78
2019-03-22T10:58:20.791Z,63.07
2019-03-22T10:59:15.161Z,62.66
2019-03-22T11:00:14.223Z,62.05
2019-03-22T11:01:14.113Z,62.56
2019-03-22T11:02:14.190Z,62.46
2019-03-22T11:03:14.109Z,62.93
2019-03-22T11:04:14.217Z,62.35
2019-03-22T11:05:14.165Z,61.82
2019-03-22T11:06:14.127Z,63.13
2019-03-22T11:07:14.050Z,62.02
2019-03-22T11:08:14.138Z,59.70
2019-03-22T11:09:14.033Z,61.01
2019-03-22T11:10:14.103Z,61.32
2019-03-22T11:11:14.010Z,60.91
2019-03-22T11:12:14.071Z,60.30
2019-03-22T11:13:13.989Z,59.80
2019-03-22T11:14:14.143Z,59.59
2019-03-22T11:15:14.010Z,58.76
2019-03-22T11:16:14.131Z,58.76
2019-03-22T11:17:13.953Z,60.35
2019-03-22T11:18:13.955Z,59.44
2019-03-22T11:19:13.945Z,58.70
2019-03-22T11:20:14.121Z,58.91
2019-03-22T11:21:13.900Z,60.57
2019-03-22T11:22:14.059Z,59.20
2019-03-22T11:23:13.882Z,54.79
2019-03-22T11:24:13.872Z,51.61
2019-03-22T11:25:13.909Z,52.64
2019-03-22T11:26:14.008Z,48.86
2019-03-22T11:27:13.943Z,49.21
2019-03-22T11:28:14.021Z,48.86
2019-03-22T11:29:13.818Z,46.81
2019-03-22T11:30:14.354Z,46.47
2019-03-22T11:31:13.797Z,45.35
2019-03-22T11:32:13.947Z,44.91
2019-03-22T11:33:13.782Z,43.21
2019-03-22T11:34:13.861Z,41.02
2019-03-22T11:35:13.790Z,41.74
2019-03-22T11:36:13.739Z,42.61
2019-03-22T11:37:13.739Z,41.83
2019-03-22T11:38:13.796Z,42.63
2019-03-22T11:39:15.754Z,42.33
2019-03-22T11:40:13.866Z,42.41
2019-03-22T11:41:13.706Z,43.09
2019-03-22T11:42:13.684Z,42.18
2019-03-22T11:43:13.672Z,42.55
2019-03-22T11:44:13.845Z,40.64
2019-03-22T11:45:13.664Z,40.26
2019-03-22T11:46:13.842Z,41.03
2019-03-22T11:47:13.631Z,42.63
2019-03-22T11:48:13.636Z,41.31
2019-03-22T11:49:13.689Z,40.70
2019-03-22T11:50:13.626Z,40.68
2019-03-22T11:51:13.709Z,40.38
2019-03-22T11:52:13.578Z,38.99
2019-03-22T11:53:13.645Z,39.09
2019-03-22T11:54:13.555Z,40.12
2019-03-22T11:55:13.711Z,42.09
2019-03-22T11:56:13.529Z,42.17
2019-03-22T11:57:13.653Z,39.17
2019-03-22T11:58:13.516Z,37.68
2019-03-22T11:59:13.495Z,40.20
2019-03-22T12:00:13.634Z,38.71
2019-03-22T12:01:19.679Z,38.41
2019-03-22T12:02:22.189Z,40.10
2019-03-22T12:03:14.566Z,40.38
2019-03-22T12:04:13.646Z,39.18
2019-03-22T12:05:15.209Z,38.37
2019-03-22T12:06:13.567Z,38.26
2019-03-22T12:07:15.008Z,37.04
2019-03-22T12:08:14.509Z,37.34
2019-03-22T12:09:13.398Z,37.24
2019-03-22T12:10:13.535Z,36.05
2019-03-22T12:11:13.427Z,37.84
2019-03-22T12:12:13.534Z,37.32
2019-03-22T12:13:13.417Z,36.71
2019-03-22T12:14:13.600Z,37.01
2019-03-22T12:15:13.427Z,34.30
2019-03-22T12:16:13.445Z,35.58
2019-03-22T12:17:13.422Z,34.61
2019-03-22T12:18:14.334Z,33.83
2019-03-22T12:19:13.421Z,34.45
2019-03-22T12:20:13.404Z,34.27
2019-03-22T12:21:14.360Z,35.29
2019-03-22T12:22:13.339Z,34.99
2019-03-22T12:23:13.367Z,34.48
2019-03-22T12:24:13.257Z,35.16
2019-03-22T12:25:13.422Z,34.55
2019-03-22T12:26:13.220Z,34.43
2019-03-22T12:27:14.422Z,35.90
2019-03-22T12:28:13.263Z,34.89
2019-03-22T12:29:13.228Z,34.58
2019-03-22T12:30:13.226Z,33.87
2019-03-22T12:31:13.300Z,33.19
2019-03-22T12:32:13.176Z,32.91
2019-03-22T12:33:13.258Z,32.10
2019-03-22T12:34:13.191Z,32.89
2019-03-22T12:35:13.222Z,31.02
2019-03-22T12:36:13.139Z,32.31
2019-03-22T12:37:13.274Z,33.31
2019-03-22T12:38:13.132Z,32.21
2019-03-22T12:39:14.160Z,30.53
2019-03-22T12:40:13.099Z,32.31
2019-03-22T12:41:13.051Z,31.32
2019-03-22T12:42:14.180Z,32.93
2019-03-22T12:43:13.035Z,31.32
2019-03-22T12:44:13.064Z,30.93
2019-03-22T12:45:13.034Z,30.55
2019-03-22T12:46:13.080Z,31.85
2019-03-22T12:47:12.986Z,33.36
2019-03-22T12:48:13.093Z,31.27
2019-03-22T12:49:12.958Z,33.75
2019-03-22T12:50:13.026Z,31.96
2019-03-22T12:51:12.943Z,34.33
2019-03-22T12:52:13.015Z,33.12
2019-03-22T12:53:12.926Z,31.15
2019-03-22T12:54:13.034Z,31.77
2019-03-22T12:55:12.932Z,31.68
2019-03-22T12:56:12.945Z,32.48
2019-03-22T12:57:12.882Z,33.87
2019-03-22T12:58:12.957Z,34.17
2019-03-22T12:59:12.859Z,32.28
2019-03-22T13:00:12.921Z,33.15
2019-03-22T13:01:12.834Z,32.84
2019-03-22T13:02:12.877Z,32.21
2019-03-22T13:03:12.810Z,31.31
2019-03-22T13:04:12.892Z,30.62
2019-03-22T13:05:12.955Z,30.74
2019-03-22T13:06:12.777Z,32.35
2019-03-22T13:07:12.911Z,32.64
2019-03-22T13:08:12.769Z,32.05
2019-03-22T13:09:12.819Z,31.74
2019-03-22T13:10:12.767Z,33.00
2019-03-22T13:11:12.739Z,31.08
2019-03-22T13:12:12.846Z,32.15
2019-03-22T13:13:12.710Z,32.14
2019-03-22T13:14:12.707Z,30.97
2019-03-22T13:15:12.776Z,31.76
2019-03-22T13:16:12.771Z,31.49
2019-03-22T13:17:12.658Z,32.10
2019-03-22T13:18:12.784Z,31.52
2019-03-22T13:19:12.648Z,31.52
2019-03-22T13:20:12.750Z,31.52
2019-03-22T13:21:12.626Z,33.00
2019-03-22T13:22:12.708Z,32.09
2019-03-22T13:23:12.603Z,32.25
2019-03-22T13:24:12.704Z,31.66
2019-03-22T13:25:12.615Z,31.23
2019-03-22T13:26:12.634Z,30.43
2019-03-22T13:27:12.567Z,30.91
2019-03-22T13:28:12.646Z,31.48
2019-03-22T13:29:12.547Z,29.91
2019-03-22T13:30:13.650Z,31.09
2019-03-22T13:31:12.522Z,29.43
2019-03-22T13:32:12.571Z,29.75
2019-03-22T13:33:12.497Z,28.59
2019-03-22T13:34:12.585Z,30.10
2019-03-22T13:35:12.504Z,30.10
2019-03-22T13:36:12.604Z,30.02
2019-03-22T13:37:12.454Z,30.52
2019-03-22T13:38:12.517Z,32.50
2019-03-22T13:39:12.430Z,32.10
2019-03-22T13:40:12.585Z,33.07
2019-03-22T13:41:12.546Z,32.46
2019-03-22T13:42:12.412Z,32.65
2019-03-22T13:43:12.457Z,32.34
2019-03-22T13:44:12.378Z,32.04
2019-03-22T13:45:13.548Z,32.42
2019-03-22T13:46:12.374Z,31.62
2019-03-22T13:47:12.353Z,31.30
2019-03-22T13:48:12.491Z,30.04
2019-03-22T13:49:12.331Z,29.34
2019-03-22T13:50:12.420Z,29.93
2019-03-22T13:51:12.304Z,29.95
2019-03-22T13:52:14.252Z,29.66
2019-03-22T13:53:12.288Z,30.77
2019-03-22T13:54:12.430Z,30.57
2019-03-22T13:55:12.293Z,30.40
2019-03-22T13:56:12.341Z,31.41
2019-03-22T13:57:12.241Z,31.11
2019-03-22T13:58:12.354Z,32.00
2019-03-22T13:59:12.221Z,32.21
2019-03-22T14:00:12.323Z,33.21
2019-03-22T14:01:12.197Z,34.41
2019-03-22T14:02:12.270Z,33.52
2019-03-22T14:03:12.179Z,33.14
2019-03-22T14:04:12.288Z,33.64
2019-03-22T14:05:12.186Z,33.82
2019-03-22T14:06:12.209Z,34.61
2019-03-22T14:07:12.136Z,32.91
2019-03-22T14:08:12.228Z,33.21
2019-03-22T14:09:12.121Z,32.31
2019-03-22T14:10:12.297Z,33.19
2019-03-22T14:11:13.087Z,33.78
2019-03-22T14:12:12.138Z,33.00
2019-03-22T14:13:12.071Z,32.60
2019-03-22T14:14:12.096Z,33.50
2019-03-22T14:15:12.080Z,32.14
2019-03-22T14:16:12.179Z,32.06
2019-03-22T14:17:12.020Z,33.17
2019-03-22T14:18:12.091Z,34.76
2019-03-22T14:19:12.000Z,35.27
2019-03-22T14:20:12.161Z,34.68
2019-03-22T14:21:11.985Z,33.80
2019-03-22T14:22:12.124Z,36.49
2019-03-22T14:23:11.967Z,35.89
2019-03-22T14:24:12.024Z,36.36
2019-03-22T14:25:11.986Z,36.05
2019-03-22T14:26:12.046Z,35.16
2019-03-22T14:27:11.925Z,35.75
2019-03-22T14:28:12.061Z,36.55
2019-03-22T14:29:11.906Z,34.05
2019-03-22T14:30:12.027Z,34.64
2019-03-22T14:31:11.872Z,34.34
2019-03-22T14:32:11.987Z,33.95
2019-03-22T14:33:13.534Z,34.64
2019-03-22T14:34:11.997Z,34.46
2019-03-22T14:35:11.821Z,33.27
2019-03-22T14:36:11.960Z,33.76
2019-03-22T14:37:11.818Z,33.37
2019-03-22T14:38:12.949Z,34.27
2019-03-22T14:39:11.800Z,33.37
2019-03-22T14:40:15.598Z,33.07
2019-03-22T14:41:11.795Z,34.28
2019-03-22T14:42:11.850Z,34.88
2019-03-22T14:43:11.755Z,35.27
2019-03-22T14:44:11.864Z,34.96
2019-03-22T14:45:11.742Z,34.66
2019-03-22T14:46:11.835Z,36.07
2019-03-22T14:47:13.051Z,35.59
2019-03-22T14:48:11.707Z,34.50
2019-03-22T14:49:11.789Z,35.21
2019-03-22T14:50:11.673Z,36.10
2019-03-22T14:51:11.870Z,35.80
2019-03-22T14:52:11.664Z,35.11
2019-03-22T14:53:11.647Z,35.33
2019-03-22T14:54:11.727Z,34.64
2019-03-22T14:55:11.664Z,35.14
2019-03-22T14:56:11.741Z,35.36
2019-03-22T14:57:11.597Z,35.14
2019-03-22T14:58:11.758Z,36.64
2019-03-22T14:59:11.582Z,36.92
2019-03-22T15:00:11.724Z,35.61
2019-03-22T15:01:11.574Z,36.40
2019-03-22T15:02:11.669Z,36.80
2019-03-22T15:03:11.535Z,36.10
2019-03-22T15:04:11.692Z,35.11
2019-03-22T15:05:11.599Z,35.01
2019-03-22T15:06:11.513Z,35.01
2019-03-22T15:07:19.598Z,35.21
2019-03-22T15:08:12.496Z,37.60
2019-03-22T15:09:12.554Z,36.08
2019-03-22T15:10:11.500Z,35.59
2019-03-22T15:11:11.463Z,34.73
2019-03-22T15:12:11.443Z,34.92
2019-03-22T15:13:11.555Z,34.64
2019-03-22T15:14:11.428Z,34.55
2019-03-22T15:15:11.461Z,36.34
2019-03-22T15:16:11.401Z,35.64
2019-03-22T15:17:11.394Z,36.14
2019-03-22T15:18:11.487Z,37.13
2019-03-22T15:19:11.383Z,37.15
2019-03-22T15:20:12.492Z,37.83
2019-03-22T15:21:11.362Z,36.24
2019-03-22T15:22:11.519Z,37.32
2019-03-22T15:23:13.430Z,37.71
2019-03-22T15:24:11.422Z,37.32
2019-03-22T15:25:11.336Z,36.72
2019-03-22T15:26:11.450Z,36.64
2019-03-22T15:27:11.301Z,35.64
2019-03-22T15:28:12.124Z,35.44
2019-03-22T15:29:11.351Z,35.38
2019-03-22T15:30:11.434Z,36.21
2019-03-22T15:31:11.252Z,36.51
2019-03-22T15:32:11.387Z,36.71
2019-03-22T15:33:11.217Z,36.32
2019-03-22T15:34:11.401Z,37.72
2019-03-22T15:35:11.290Z,37.23
2019-03-22T15:37:11.290Z,38.82
2019-03-22T15:38:12.355Z,38.82
2019-03-22T15:39:11.353Z,39.70
2019-03-22T15:40:11.185Z,38.48
2019-03-22T15:41:11.153Z,38.39
2019-03-22T15:42:12.279Z,38.46
2019-03-22T15:43:11.107Z,38.17
2019-03-22T15:44:11.321Z,38.86
2019-03-22T15:45:11.209Z,36.47
2019-03-22T15:46:11.088Z,36.37
2019-03-22T15:47:11.105Z,37.57
2019-03-22T15:48:11.193Z,36.37
2019-03-22T15:49:11.056Z,38.37
2019-03-22T15:50:11.253Z,38.84
2019-03-22T15:51:11.041Z,39.26
2019-03-22T15:52:11.032Z,40.66
2019-03-22T15:53:11.126Z,41.06
2019-03-22T15:54:11.031Z,38.27
2019-03-22T15:55:12.125Z,38.56
2019-03-22T15:56:11.000Z,38.84
2019-03-22T15:57:11.162Z,38.45
2019-03-22T15:58:10.974Z,38.75
2019-03-22T15:59:11.078Z,38.95
2019-03-22T16:00:10.987Z,37.35
2019-03-22T16:01:11.088Z,38.65
2019-03-22T16:02:10.930Z,39.26
2019-03-22T16:03:11.104Z,40.86
2019-03-22T16:04:10.911Z,39.46
2019-03-22T16:05:11.073Z,37.97
2019-03-22T16:06:10.892Z,37.47
2019-03-22T16:07:11.026Z,38.76
2019-03-22T16:08:10.869Z,38.56
2019-03-22T16:09:11.045Z,37.68
2019-03-22T16:10:10.873Z,37.01
2019-03-22T16:11:10.957Z,37.30
2019-03-22T16:12:10.827Z,37.51
2019-03-22T16:13:11.997Z,38.40
2019-03-22T16:14:10.806Z,39.00
2019-03-22T16:15:10.943Z,38.40
2019-03-22T16:16:10.780Z,38.32
2019-03-22T16:17:10.900Z,39.92
2019-03-22T16:18:10.764Z,39.52
2019-03-22T16:19:10.917Z,39.42
2019-03-22T16:20:10.762Z,39.42
2019-03-22T16:21:10.727Z,38.72
2019-03-22T16:22:10.721Z,39.24
2019-03-22T16:23:10.864Z,39.24
2019-03-22T16:24:10.696Z,39.24
2019-03-22T16:25:10.921Z,40.73
2019-03-22T16:26:10.669Z,39.14
2019-03-22T16:27:10.665Z,39.42
2019-03-22T16:28:10.647Z,39.24
2019-03-22T16:29:10.784Z,40.22
2019-03-22T16:30:10.655Z,40.32
2019-03-22T16:31:10.797Z,40.14
2019-03-22T16:32:10.608Z,39.14
2019-03-22T16:33:10.606Z,40.23
2019-03-22T16:34:10.596Z,41.24
2019-03-22T16:35:10.787Z,42.03
2019-03-22T16:36:10.598Z,43.03
2019-03-22T16:37:11.765Z,42.54
2019-03-22T16:38:10.548Z,40.34
2019-03-22T16:39:10.546Z,41.05
2019-03-22T16:40:10.660Z,41.16
2019-03-22T16:41:10.543Z,43.05
2019-03-22T16:42:10.677Z,42.15
2019-03-22T16:43:10.493Z,43.85
2019-03-22T16:44:10.688Z,43.45
2019-03-22T16:45:10.476Z,42.46
2019-03-22T16:46:10.652Z,43.33
2019-03-22T16:47:10.454Z,45.13
2019-03-22T16:48:10.615Z,45.45
2019-03-22T16:49:10.435Z,46.25
2019-03-22T16:50:10.631Z,44.75
2019-03-22T16:51:10.596Z,45.97
2019-03-22T16:52:10.398Z,45.87
2019-03-22T16:53:10.555Z,46.30
2019-03-22T16:54:10.384Z,46.30
2019-03-22T16:55:10.565Z,47.61
2019-03-22T16:56:10.394Z,46.42
2019-03-22T16:57:10.351Z,46.44
2019-03-22T16:58:10.383Z,47.76
2019-03-22T16:59:10.324Z,47.88
2019-03-22T17:00:10.407Z,47.19
2019-03-22T17:01:10.358Z,49.58
2019-03-22T17:02:10.416Z,49.11
2019-03-22T17:03:10.297Z,49.43
2019-03-22T17:04:10.323Z,49.26
2019-03-22T17:05:10.257Z,50.06
2019-03-22T17:06:10.399Z,49.28
2019-03-22T17:07:10.238Z,51.31
2019-03-22T17:08:10.348Z,51.81
2019-03-22T17:09:10.222Z,52.64
2019-03-22T17:10:10.270Z,52.97
2019-03-22T17:11:10.234Z,52.89
2019-03-22T17:12:10.280Z,53.09
2019-03-22T17:13:10.188Z,53.42
2019-03-22T17:14:10.170Z,53.12
2019-03-22T17:15:10.157Z,53.14
2019-03-22T17:16:10.270Z,53.98
2019-03-22T17:17:10.143Z,54.88
2019-03-22T17:18:10.225Z,54.81
2019-03-22T17:19:10.149Z,54.71
2019-03-22T17:20:10.192Z,55.54
2019-03-22T17:21:10.124Z,57.96
2019-03-22T17:22:10.151Z,56.98
2019-03-22T17:23:10.080Z,58.59
2019-03-22T17:24:10.171Z,58.42
2019-03-22T17:25:10.079Z,58.01
2019-03-22T17:26:10.041Z,58.01
2019-03-22T17:27:10.051Z,59.45
2019-03-22T17:28:10.094Z,59.66
2019-03-22T17:29:10.011Z,60.49
2019-03-22T17:30:10.181Z,60.49
2019-03-22T17:31:09.988Z,61.30
2019-03-22T17:32:10.043Z,61.73
2019-03-22T17:33:10.015Z,62.54
2019-03-22T17:34:14.225Z,62.85
2019-03-22T17:35:10.099Z,63.28
2019-03-22T17:36:10.063Z,64.59
2019-03-22T17:37:09.924Z,63.28
2019-03-22T17:38:09.977Z,63.54
2019-03-22T17:39:09.969Z,64.25
2019-03-22T17:40:10.208Z,64.25
2019-03-22T17:41:09.885Z,65.09
2019-03-22T17:42:10.007Z,64.89
2019-03-22T17:43:09.856Z,65.50
2019-03-22T17:44:09.918Z,66.20
2019-03-22T17:45:10.131Z,66.50
2019-03-22T17:46:09.829Z,66.64
2019-03-22T17:47:09.944Z,66.77
2019-03-22T17:48:09.810Z,67.89
2019-03-22T17:49:09.964Z,68.19
2019-03-22T17:50:10.060Z,68.90
2019-03-22T17:51:09.774Z,69.61
2019-03-22T17:52:09.878Z,69.31
2019-03-22T17:53:09.752Z,69.13
2019-03-22T17:54:09.897Z,69.64
2019-03-22T17:55:09.765Z,69.07
2019-03-22T17:56:09.722Z,69.27
2019-03-22T17:57:18.392Z,69.98
2019-03-22T17:58:10.700Z,70.62
2019-03-22T17:59:09.824Z,70.62
2019-03-22T18:00:09.741Z,71.67
2019-03-22T18:01:09.737Z,71.47
2019-03-22T18:02:09.696Z,71.30
2019-03-22T18:03:09.749Z,71.80
2019-03-22T18:04:09.633Z,72.11
2019-03-22T18:05:09.834Z,72.31
2019-03-22T18:06:11.249Z,72.21
2019-03-22T18:07:09.692Z,72.01
2019-03-22T18:08:09.597Z,71.94
2019-03-22T18:09:09.697Z,72.96
2019-03-22T18:10:09.606Z,73.26
2019-03-22T18:11:09.724Z,73.57
2019-03-22T18:12:09.548Z,73.26
2019-03-22T18:13:09.552Z,73.70
2019-03-22T18:14:09.535Z,73.60
2019-03-22T18:15:09.708Z,73.84
2019-03-22T18:16:09.505Z,74.04
2019-03-22T18:17:09.667Z,74.08
2019-03-22T18:18:09.493Z,74.69
2019-03-22T18:19:09.557Z,75.43
2019-03-22T18:20:09.500Z,75.33
2019-03-22T18:21:09.594Z,75.33
2019-03-22T18:22:09.445Z,75.95
2019-03-22T18:23:09.615Z,76.08
2019-03-22T18:24:09.422Z,76.08
2019-03-22T18:25:09.440Z,76.49
2019-03-22T18:26:09.399Z,77.10
2019-03-22T18:27:09.551Z,77.44
2019-03-22T18:28:09.383Z,77.75
2019-03-22T18:29:09.574Z,77.55
2019-03-22T18:30:09.385Z,77.27
2019-03-22T18:31:09.349Z,77.95
2019-03-22T18:32:09.391Z,77.55
2019-03-22T18:33:09.328Z,77.78
2019-03-22T18:34:09.410Z,77.58
2019-03-22T18:35:09.333Z,77.27
2019-03-22T18:36:09.329Z,78.12
2019-03-22T18:37:09.286Z,78.74
2019-03-22T18:38:09.338Z,78.94
2019-03-22T18:39:09.260Z,78.74
2019-03-22T18:40:09.411Z,79.55
2019-03-22T18:41:09.236Z,78.94
2019-03-22T18:42:11.314Z,79.08
2019-03-22T18:43:09.274Z,78.88
2019-03-22T18:44:09.209Z,78.37
2019-03-22T18:45:09.352Z,78.57
2019-03-22T18:46:09.188Z,78.98
2019-03-22T18:47:09.306Z,79.90
2019-03-22T18:48:09.168Z,79.83
2019-03-22T18:49:09.158Z,79.73
2019-03-22T18:50:10.314Z,79.63
2019-03-22T18:51:09.130Z,79.63
2019-03-22T18:52:09.245Z,80.04
2019-03-22T18:53:09.122Z,79.63
2019-03-22T18:54:09.270Z,79.77
2019-03-22T18:55:09.090Z,79.77
2019-03-22T18:56:09.239Z,80.07
2019-03-22T18:57:09.086Z,80.28
2019-03-22T18:58:09.204Z,80.99
2019-03-22T18:59:09.055Z,80.58
2019-03-22T19:00:09.101Z,80.58
2019-03-22T19:01:09.054Z,80.48
2019-03-22T19:02:09.121Z,80.89
2019-03-22T19:03:09.005Z,80.73
2019-03-22T19:04:09.265Z,80.83
2019-03-22T19:05:09.208Z,81.03
2019-03-22T19:06:09.502Z,80.42
2019-03-22T19:07:08.955Z,80.42
2019-03-22T19:08:09.066Z,80.73
2019-03-22T19:09:08.949Z,81.03
2019-03-22T19:10:09.081Z,81.27
2019-03-22T19:11:08.943Z,81.48
2019-03-22T19:12:09.003Z,81.68
2019-03-22T19:13:08.899Z,81.82
2019-03-22T19:14:09.013Z,82.03
2019-03-22T19:15:08.880Z,82.43
2019-03-22T19:16:09.117Z,82.34
2019-03-22T19:17:08.860Z,82.13
2019-03-22T19:18:08.866Z,82.64
2019-03-22T19:19:08.842Z,82.75
2019-03-22T19:20:08.961Z,82.98
2019-03-22T19:21:08.870Z,83.19
2019-03-22T19:22:08.962Z,83.19
2019-03-22T19:23:08.791Z,83.39
2019-03-22T19:24:08.767Z,83.44
2019-03-22T19:25:08.785Z,84.05
2019-03-22T19:26:08.950Z,83.74
2019-03-22T19:27:08.742Z,83.64
2019-03-22T19:28:08.911Z,83.44
2019-03-22T19:29:08.771Z,83.84
2019-03-22T19:30:08.712Z,84.05
2019-03-22T19:31:08.740Z,83.78
2019-03-22T19:32:13.753Z,84.50
2019-03-22T19:33:08.776Z,84.09
2019-03-22T19:34:08.857Z,84.09
2019-03-22T19:35:08.684Z,84.50
2019-03-22T19:36:08.814Z,84.60
2019-03-22T19:37:08.652Z,85.22
2019-03-22T19:38:08.810Z,85.63
2019-03-22T19:39:08.646Z,85.63
2019-03-22T19:40:08.772Z,85.22
2019-03-22T19:41:08.607Z,85.25
2019-03-22T19:42:08.582Z,85.42
2019-03-22T19:43:08.740Z,85.56
2019-03-22T19:44:08.585Z,85.31
2019-03-22T19:45:08.761Z,85.05
2019-03-22T19:46:08.577Z,85.36
2019-03-22T19:47:08.670Z,85.15
2019-03-22T19:48:08.532Z,85.66
2019-03-22T19:49:08.591Z,85.56
2019-03-22T19:50:08.511Z,85.36
2019-03-22T19:51:08.547Z,86.18
2019-03-22T19:52:08.481Z,86.18
2019-03-22T19:53:08.472Z,86.18
2019-03-22T19:54:08.514Z,86.22
2019-03-22T19:55:09.564Z,86.42
2019-03-22T19:56:11.350Z,86.22
2019-03-22T19:57:13.576Z,85.97
2019-03-22T19:58:08.449Z,86.22
2019-03-22T19:59:08.558Z,86.52
2019-03-22T20:00:09.705Z,86.52
2019-03-22T20:01:11.211Z,86.63
2019-03-22T20:02:08.412Z,86.32
2019-03-22T20:03:08.616Z,86.42
2019-03-22T20:04:08.592Z,86.63
2019-03-22T20:05:08.421Z,86.22
2019-03-22T20:06:08.396Z,86.93
2019-03-22T20:07:08.443Z,86.73
2019-03-22T20:08:08.370Z,87.04
2019-03-22T20:09:09.749Z,87.70
2019-03-22T20:10:08.544Z,86.93
2019-03-22T20:11:08.318Z,86.63
2019-03-22T20:12:08.347Z,87.14
2019-03-22T20:13:08.407Z,87.04
2019-03-22T20:14:08.719Z,87.28
2019-03-22T20:15:08.498Z,86.87
2019-03-22T20:16:08.280Z,86.66
2019-03-22T20:17:08.225Z,87.28
2019-03-22T20:18:08.214Z,87.18
2019-03-22T20:19:08.425Z,87.90
2019-03-22T20:20:08.267Z,87.90
2019-03-22T20:21:09.332Z,88.04
2019-03-22T20:22:08.257Z,87.73
2019-03-22T20:23:08.345Z,87.73
2019-03-22T20:24:08.309Z,87.84
2019-03-22T20:25:08.472Z,87.73
2019-03-22T20:26:08.188Z,87.43
2019-03-22T20:27:09.288Z,87.84
2019-03-22T20:28:08.185Z,87.53
2019-03-22T20:29:08.190Z,87.94
2019-03-22T20:30:08.192Z,88.35
2019-03-22T20:31:08.192Z,88.39
2019-03-22T20:32:08.173Z,88.29
2019-03-22T20:33:09.207Z,88.39
2019-03-22T20:34:08.131Z,88.49
2019-03-22T20:35:16.289Z,89.31
2019-03-22T20:36:09.143Z,89.11
2019-03-22T20:37:08.121Z,89.11
2019-03-22T20:38:08.136Z,88.90
2019-03-22T20:39:08.149Z,88.80
2019-03-22T20:40:08.057Z,88.74
2019-03-22T20:41:08.181Z,88.80
2019-03-22T20:42:09.227Z,88.90
2019-03-22T20:43:08.035Z,88.80
2019-03-22T20:44:08.084Z,88.70
2019-03-22T20:45:07.939Z,88.95
2019-03-22T20:46:08.083Z,89.01
2019-03-22T20:47:08.001Z,89.76
2019-03-22T20:48:07.966Z,89.66
2019-03-22T20:49:07.922Z,89.56